createdAt,value
2022-11-10T00:00:01.380Z,100.00
2022-11-10T00:02:48.137Z,100.00
2022-11-10T00:05:38.169Z,100.00
2022-11-10T00:08:24.436Z,100.00
2022-11-10T00:11:10.798Z,100.00
2022-11-10T00:14:15.849Z,100.00
2022-11-10T00:17:09.110Z,100.00
2022-11-10T00:19:55.902Z,100.00
2022-11-10T00:22:42.222Z,100.00
2022-11-10T00:25:29.042Z,100.00
2022-11-10T00:28:15.521Z,100.00
2022-11-10T00:31:06.212Z,100.00
2022-11-10T00:33:52.693Z,100.00
2022-11-10T00:36:39.615Z,100.00
2022-11-10T00:39:26.296Z,100.00
2022-11-10T00:42:12.573Z,100.00
2022-11-10T00:44:58.901Z,100.00
2022-11-10T00:47:46.847Z,100.00
2022-11-10T00:50:33.446Z,100.00
2022-11-10T00:53:20.281Z,100.00
2022-11-10T00:56:07.102Z,100.00
2022-11-10T00:58:53.330Z,100.00
2022-11-10T01:01:39.774Z,100.00
2022-11-10T01:04:26.006Z,100.00
2022-11-10T01:07:12.202Z,100.00
2022-11-10T01:09:58.895Z,100.00
2022-11-10T01:12:45.495Z,100.00
2022-11-10T01:15:32.111Z,100.00
2022-11-10T01:18:18.893Z,100.00
2022-11-10T01:21:06.656Z,100.00
2022-11-10T01:23:53.581Z,100.00
2022-11-10T01:26:40.352Z,100.00
2022-11-10T01:29:26.854Z,100.00
2022-11-10T01:32:13.226Z,100.00
2022-11-10T01:34:59.455Z,100.00
2022-11-10T01:37:46.175Z,100.00
2022-11-10T01:40:32.436Z,100.00
2022-11-10T01:43:19.249Z,100.00
2022-11-10T01:46:08.487Z,100.00
2022-11-10T01:49:02.438Z,100.00
2022-11-10T01:51:51.261Z,100.00
2022-11-10T01:54:43.443Z,100.00
2022-11-10T01:57:29.897Z,100.00
2022-11-10T02:00:18.136Z,100.00
2022-11-10T02:03:13.956Z,100.00
2022-11-10T02:06:00.751Z,100.00
2022-11-10T02:08:47.967Z,100.00
2022-11-10T02:11:36.197Z,100.00
2022-11-10T02:14:22.719Z,100.00
2022-11-10T02:17:09.753Z,100.00
2022-11-10T02:20:04.919Z,100.00
2022-11-10T02:22:51.415Z,100.00
2022-11-10T02:25:37.805Z,100.00
2022-11-10T02:28:25.848Z,100.00
2022-11-10T02:31:13.066Z,100.00
2022-11-10T02:33:59.596Z,100.00
2022-11-10T02:36:46.457Z,100.00
2022-11-10T02:39:33.232Z,100.00
2022-11-10T02:42:19.860Z,100.00
2022-11-10T02:45:06.649Z,100.00
2022-11-10T02:47:53.101Z,100.00
2022-11-10T02:50:40.751Z,100.00
2022-11-10T02:53:27.377Z,100.00
2022-11-10T02:56:14.219Z,100.00
2022-11-10T02:59:00.709Z,100.00
2022-11-10T03:01:46.990Z,100.00
2022-11-10T03:04:33.348Z,100.00
2022-11-10T03:07:19.514Z,100.00
2022-11-10T03:10:07.158Z,100.00
2022-11-10T03:12:58.523Z,100.00
2022-11-10T03:15:47.142Z,100.00
2022-11-10T03:18:33.708Z,100.00
2022-11-10T03:21:19.885Z,100.00
2022-11-10T03:24:06.378Z,100.00
2022-11-10T03:26:52.797Z,100.00
2022-11-10T03:29:38.814Z,100.00
2022-11-10T03:32:25.012Z,100.00
2022-11-10T03:35:11.463Z,100.00
2022-11-10T03:37:57.760Z,100.00
2022-11-10T03:41:17.071Z,100.00
2022-11-10T03:43:51.226Z,100.00
2022-11-10T03:46:38.930Z,100.00
2022-11-10T03:49:27.173Z,100.00
2022-11-10T03:52:13.483Z,100.00
2022-11-10T03:55:03.265Z,100.00
2022-11-10T03:57:50.174Z,100.00
2022-11-10T04:00:36.648Z,100.00
2022-11-10T04:03:24.071Z,100.00
2022-11-10T04:06:30.419Z,100.00
2022-11-10T04:09:16.880Z,100.00
2022-11-10T04:12:24.892Z,100.00
2022-11-10T04:15:31.366Z,100.00
2022-11-10T04:18:27.031Z,100.00
2022-11-10T04:21:13.387Z,100.00
2022-11-10T04:23:59.716Z,100.00
2022-11-10T04:26:47.607Z,100.00
2022-11-10T04:29:34.020Z,100.00
2022-11-10T04:32:20.319Z,100.00
2022-11-10T04:35:07.043Z,100.00
2022-11-10T04:37:53.500Z,100.00
2022-11-10T04:40:39.818Z,100.00
2022-11-10T04:43:26.606Z,100.00
2022-11-10T04:46:34.976Z,100.00
2022-11-10T04:49:21.311Z,100.00
2022-11-10T04:52:07.593Z,100.00
2022-11-10T04:54:53.837Z,100.00
2022-11-10T04:57:40.952Z,100.00
2022-11-10T05:00:27.674Z,100.00
2022-11-10T05:03:14.557Z,100.00
2022-11-10T05:06:00.826Z,100.00
2022-11-10T05:08:47.901Z,100.00
2022-11-10T05:11:34.064Z,100.00
2022-11-10T05:14:20.348Z,100.00
2022-11-10T05:17:06.889Z,100.00
2022-11-10T05:19:53.249Z,100.00
2022-11-10T05:22:39.520Z,100.00
2022-11-10T05:25:26.008Z,100.00
2022-11-10T05:28:13.632Z,100.00
2022-11-10T05:31:00.029Z,100.00
2022-11-10T05:33:46.657Z,100.00
2022-11-10T05:36:32.885Z,100.00
2022-11-10T05:39:19.472Z,100.00
2022-11-10T05:42:05.657Z,100.00
2022-11-10T05:44:52.096Z,100.00
2022-11-10T05:47:38.699Z,100.00
2022-11-10T05:50:25.667Z,100.00
2022-11-10T05:53:11.923Z,100.00
2022-11-10T05:55:58.265Z,100.00
2022-11-10T05:58:44.360Z,100.00
2022-11-10T06:01:30.550Z,100.00
2022-11-10T06:04:16.865Z,100.00
2022-11-10T06:07:03.413Z,100.00
2022-11-10T06:09:49.677Z,100.00
2022-11-10T06:12:36.670Z,100.00
2022-11-10T06:15:23.944Z,100.00
2022-11-10T06:18:10.799Z,100.00
2022-11-10T06:20:57.077Z,100.00
2022-11-10T06:23:43.617Z,100.00
2022-11-10T06:26:30.029Z,100.00
2022-11-10T06:29:16.814Z,100.00
2022-11-10T06:32:03.312Z,100.00
2022-11-10T06:34:49.696Z,100.00
2022-11-10T06:37:36.136Z,100.00
2022-11-10T06:40:22.729Z,100.00
2022-11-10T06:43:09.183Z,100.00
2022-11-10T06:45:55.539Z,100.00
2022-11-10T06:48:41.809Z,100.00
2022-11-10T06:51:28.340Z,100.00
2022-11-10T06:54:14.789Z,100.00
2022-11-10T06:57:01.200Z,100.00
2022-11-10T06:59:50.479Z,100.00
2022-11-10T07:02:37.013Z,100.00
2022-11-10T07:05:23.456Z,100.00
2022-11-10T07:08:16.351Z,100.00
2022-11-10T07:11:02.962Z,100.00
2022-11-10T07:13:49.528Z,100.00
2022-11-10T07:16:35.941Z,100.00
2022-11-10T07:19:22.249Z,100.00
2022-11-10T07:22:11.250Z,100.00
2022-11-10T07:24:58.043Z,100.00
2022-11-10T07:27:44.483Z,100.00
2022-11-10T07:30:32.995Z,100.00
2022-11-10T07:33:20.011Z,100.00
2022-11-10T07:36:07.467Z,100.00
2022-11-10T07:38:53.983Z,100.00
2022-11-10T07:41:41.634Z,100.00
2022-11-10T07:44:27.931Z,100.00
2022-11-10T07:47:14.244Z,100.00
2022-11-10T07:50:00.761Z,100.00
2022-11-10T07:52:47.071Z,100.00
2022-11-10T07:55:34.096Z,100.00
2022-11-10T07:58:20.862Z,100.00
2022-11-10T08:01:07.407Z,100.00
2022-11-10T08:03:54.034Z,100.00
2022-11-10T08:06:40.476Z,100.00
2022-11-10T08:09:27.013Z,100.00
2022-11-10T08:12:13.126Z,100.00
2022-11-10T08:14:59.297Z,98.11
2022-11-10T08:17:45.948Z,95.24
2022-11-10T08:20:32.971Z,94.83
2022-11-10T08:23:19.751Z,94.59
2022-11-10T08:26:06.465Z,95.08
2022-11-10T08:28:52.658Z,95.76
2022-11-10T08:31:39.167Z,96.23
2022-11-10T08:34:25.541Z,92.21
2022-11-10T08:37:11.853Z,95.00
2022-11-10T08:39:58.057Z,93.92
2022-11-10T08:42:44.319Z,94.66
2022-11-10T08:45:30.610Z,96.04
2022-11-10T08:48:20.098Z,94.35
2022-11-10T08:51:06.936Z,93.51
2022-11-10T08:53:53.331Z,95.02
2022-11-10T08:56:42.302Z,96.50
2022-11-10T08:59:29.199Z,97.85
2022-11-10T09:02:15.650Z,98.07
2022-11-10T09:05:02.008Z,97.46
2022-11-10T09:07:49.833Z,95.81
2022-11-10T09:10:39.714Z,98.38
2022-11-10T09:13:29.971Z,94.81
2022-11-10T09:16:17.200Z,97.38
2022-11-10T09:19:03.525Z,96.13
2022-11-10T09:21:50.065Z,97.30
2022-11-10T09:24:36.874Z,96.55
2022-11-10T09:27:23.346Z,94.45
2022-11-10T09:30:14.568Z,93.25
2022-11-10T09:33:04.030Z,95.23
2022-11-10T09:35:51.129Z,96.22
2022-11-10T09:38:39.671Z,98.04
2022-11-10T09:41:30.127Z,97.57
2022-11-10T09:44:23.540Z,96.08
2022-11-10T09:47:19.085Z,95.73
2022-11-10T09:50:27.085Z,97.98
2022-11-10T09:53:19.858Z,94.81
2022-11-10T09:56:07.517Z,97.85
2022-11-10T09:58:57.081Z,98.99
2022-11-10T10:01:51.759Z,98.15
2022-11-10T10:04:44.794Z,100.00
2022-11-10T10:07:39.533Z,98.44
2022-11-10T10:10:28.436Z,100.00
2022-11-10T10:13:20.343Z,99.18
2022-11-10T10:16:12.323Z,97.76
2022-11-10T10:19:25.870Z,97.85
2022-11-10T10:22:36.604Z,97.91
2022-11-10T10:25:24.890Z,96.31
2022-11-10T10:28:23.635Z,96.02
2022-11-10T10:31:20.836Z,96.54
2022-11-10T10:34:16.172Z,93.09
2022-11-10T10:37:02.959Z,93.45
2022-11-10T10:39:52.026Z,92.48
2022-11-10T10:42:38.236Z,92.83
2022-11-10T10:45:29.266Z,89.53
2022-11-10T10:48:28.372Z,85.95
2022-11-10T10:51:44.455Z,84.43
2022-11-10T10:54:33.672Z,82.87
2022-11-10T10:57:24.254Z,84.20
2022-11-10T11:00:29.571Z,85.90
2022-11-10T11:03:47.197Z,82.67
2022-11-10T11:06:35.177Z,81.97
2022-11-10T11:09:39.885Z,80.34
2022-11-10T11:12:30.112Z,81.20
2022-11-10T11:15:21.924Z,78.32
2022-11-10T11:18:15.176Z,78.27
2022-11-10T11:24:12.049Z,75.66
2022-11-10T11:27:04.680Z,74.10
2022-11-10T11:30:13.728Z,72.96
2022-11-10T11:33:31.779Z,72.34
2022-11-10T11:36:20.901Z,74.76
2022-11-10T11:39:44.433Z,75.85
2022-11-10T11:43:01.343Z,76.71
2022-11-10T11:45:58.648Z,78.84
2022-11-10T11:48:44.532Z,79.08
2022-11-10T11:52:06.120Z,80.18
2022-11-10T11:55:26.513Z,80.60
2022-11-10T11:58:50.984Z,82.20
2022-11-10T12:01:46.247Z,84.64
2022-11-10T12:04:46.127Z,84.64
2022-11-10T12:07:50.290Z,88.54
2022-11-10T12:10:43.837Z,91.82
2022-11-10T12:13:37.756Z,96.07
2022-11-10T12:16:51.708Z,97.67
2022-11-10T12:19:53.738Z,97.40
2022-11-10T12:22:54.255Z,96.73
2022-11-10T12:25:52.327Z,93.57
2022-11-10T12:28:44.552Z,93.01
2022-11-10T12:31:36.020Z,92.60
2022-11-10T12:34:44.229Z,89.84
2022-11-10T12:37:40.465Z,89.07
2022-11-10T12:40:56.126Z,89.84
2022-11-10T12:43:58.248Z,89.66
2022-11-10T12:46:51.806Z,86.90
2022-11-10T12:49:55.583Z,89.05
2022-11-10T12:52:51.983Z,88.28
2022-11-10T12:56:02.215Z,85.37
2022-11-10T12:58:48.382Z,83.74
2022-11-10T13:01:34.898Z,86.35
2022-11-10T13:04:21.238Z,87.39
2022-11-10T13:07:13.092Z,86.55
2022-11-10T13:10:26.544Z,84.86
2022-11-10T13:13:17.420Z,85.73
2022-11-10T13:16:05.626Z,84.73
2022-11-10T13:18:54.118Z,84.63
2022-11-10T13:22:05.432Z,82.29
2022-11-10T13:24:52.094Z,82.88
2022-11-10T13:27:38.642Z,83.70
2022-11-10T13:30:45.083Z,82.77
2022-11-10T13:33:36.272Z,83.03
2022-11-10T13:36:45.440Z,84.39
2022-11-10T13:39:33.613Z,85.87
2022-11-10T13:42:25.043Z,84.96
2022-11-10T13:45:42.059Z,83.54
2022-11-10T13:48:41.932Z,83.14
2022-11-10T13:52:06.597Z,83.79
2022-11-10T13:55:18.901Z,83.83
2022-11-10T13:58:10.671Z,83.21
2022-11-10T14:01:18.605Z,83.40
2022-11-10T14:04:05.206Z,81.86
2022-11-10T14:06:55.186Z,84.31
2022-11-10T14:09:45.757Z,82.97
2022-11-10T14:12:46.400Z,82.08
2022-11-10T14:15:41.910Z,82.91
2022-11-10T14:18:45.583Z,82.10
2022-11-10T14:21:43.551Z,82.75
2022-11-10T14:24:39.714Z,82.91
2022-11-10T14:27:28.958Z,82.81
2022-11-10T14:30:24.944Z,82.66
2022-11-10T14:33:13.928Z,82.65
2022-11-10T14:36:10.196Z,83.79
2022-11-10T14:38:58.291Z,84.61
2022-11-10T14:41:48.877Z,85.26
2022-11-10T14:44:35.709Z,85.79
2022-11-10T14:47:33.529Z,85.29
2022-11-10T14:50:21.997Z,85.27
2022-11-10T14:53:15.248Z,86.23
2022-11-10T14:56:04.500Z,87.91
2022-11-10T14:58:51.790Z,88.31
2022-11-10T15:01:58.038Z,88.10
2022-11-10T15:04:46.395Z,89.60
2022-11-10T15:07:32.710Z,89.90
2022-11-10T15:10:21.868Z,89.92
2022-11-10T15:13:14.071Z,90.78
2022-11-10T15:16:22.040Z,90.42
2022-11-10T15:19:46.409Z,90.98
2022-11-10T15:22:36.656Z,91.62
2022-11-10T15:25:26.232Z,90.29
2022-11-10T15:28:12.449Z,90.42
2022-11-10T15:31:02.497Z,91.54
2022-11-10T15:33:52.330Z,91.06
2022-11-10T15:36:42.159Z,91.66
2022-11-10T15:39:30.429Z,91.51
2022-11-10T15:42:21.599Z,92.27
2022-11-10T15:45:08.582Z,93.04
2022-11-10T15:47:55.897Z,94.26
2022-11-10T15:50:45.737Z,92.52
2022-11-10T15:53:38.800Z,95.39
2022-11-10T15:56:25.612Z,96.65
2022-11-10T15:59:12.208Z,96.28
2022-11-10T16:01:59.474Z,97.80
2022-11-10T16:04:46.899Z,97.25
2022-11-10T16:07:33.515Z,97.97
2022-11-10T16:10:19.915Z,97.80
2022-11-10T16:13:07.813Z,98.36
2022-11-10T16:15:55.180Z,99.18
2022-11-10T16:18:43.918Z,99.06
2022-11-10T16:21:30.444Z,100.00
2022-11-10T16:24:18.101Z,100.00
2022-11-10T16:27:11.444Z,100.00
2022-11-10T16:29:57.855Z,100.00
2022-11-10T16:32:43.965Z,100.00
2022-11-10T16:35:30.756Z,100.00
2022-11-10T16:38:26.655Z,100.00
2022-11-10T16:41:14.844Z,100.00
2022-11-10T16:44:01.401Z,100.00
2022-11-10T16:46:54.222Z,100.00
2022-11-10T16:49:44.379Z,100.00
2022-11-10T16:52:31.076Z,100.00
2022-11-10T16:55:17.472Z,100.00
2022-11-10T16:58:04.864Z,100.00
2022-11-10T17:00:51.437Z,100.00
2022-11-10T17:03:43.283Z,100.00
2022-11-10T17:06:31.710Z,100.00
2022-11-10T17:09:23.580Z,100.00
2022-11-10T17:12:15.065Z,100.00
2022-11-10T17:15:02.131Z,100.00
2022-11-10T17:17:53.248Z,100.00
2022-11-10T17:20:42.822Z,98.92
2022-11-10T17:23:29.958Z,98.34
2022-11-10T17:26:20.654Z,98.83
2022-11-10T17:29:07.523Z,100.00
2022-11-10T17:31:56.668Z,100.00
2022-11-10T17:34:43.280Z,100.00
2022-11-10T17:37:29.945Z,98.75
2022-11-10T17:40:19.150Z,99.15
2022-11-10T17:43:05.634Z,100.00
2022-11-10T17:45:52.483Z,100.00
2022-11-10T17:48:38.932Z,100.00
2022-11-10T17:51:25.134Z,100.00
2022-11-10T17:54:14.640Z,100.00
2022-11-10T17:57:01.024Z,100.00
2022-11-10T17:59:47.577Z,100.00
2022-11-10T18:02:34.261Z,100.00
2022-11-10T18:05:21.245Z,100.00
2022-11-10T18:08:07.593Z,99.50
2022-11-10T18:10:55.188Z,98.80
2022-11-10T18:13:42.762Z,100.00
2022-11-10T18:16:29.305Z,100.00
2022-11-10T18:19:15.789Z,100.00
2022-11-10T18:22:02.240Z,100.00
2022-11-10T18:24:49.223Z,100.00
2022-11-10T18:27:36.962Z,100.00
2022-11-10T18:30:23.232Z,100.00
2022-11-10T18:33:12.133Z,100.00
2022-11-10T18:36:00.444Z,100.00
2022-11-10T18:38:47.869Z,100.00
2022-11-10T18:41:49.749Z,100.00
2022-11-10T18:44:37.196Z,100.00
2022-11-10T18:47:23.576Z,100.00
2022-11-10T18:50:10.482Z,100.00
2022-11-10T18:52:57.249Z,100.00
2022-11-10T18:55:54.150Z,100.00
2022-11-10T18:58:41.461Z,100.00
2022-11-10T19:01:28.196Z,100.00
2022-11-10T19:04:15.122Z,100.00
2022-11-10T19:07:02.017Z,100.00
2022-11-10T19:09:48.696Z,100.00
2022-11-10T19:12:35.687Z,100.00
2022-11-10T19:15:25.956Z,100.00
2022-11-10T19:18:12.793Z,99.21
2022-11-10T19:21:07.933Z,99.23
2022-11-10T19:23:58.681Z,99.25
2022-11-10T19:26:49.662Z,99.14
2022-11-10T19:29:35.907Z,100.00
2022-11-10T19:32:25.009Z,100.00
2022-11-10T19:35:13.484Z,99.35
2022-11-10T19:38:00.034Z,100.00
2022-11-10T19:40:46.583Z,100.00
2022-11-10T19:43:32.945Z,100.00
2022-11-10T19:46:25.093Z,100.00
2022-11-10T19:49:11.326Z,100.00
2022-11-10T19:51:59.089Z,100.00
2022-11-10T19:54:45.667Z,100.00
2022-11-10T19:57:34.802Z,100.00
2022-11-10T20:00:23.568Z,99.56
2022-11-10T20:03:12.579Z,99.34
2022-11-10T20:06:04.822Z,98.71
2022-11-10T20:08:51.442Z,98.99
2022-11-10T20:11:38.011Z,99.00
2022-11-10T20:14:24.260Z,97.79
2022-11-10T20:17:10.702Z,99.57
2022-11-10T20:19:57.277Z,100.00
2022-11-10T20:22:43.765Z,100.00
2022-11-10T20:25:30.389Z,100.00
2022-11-10T20:28:16.569Z,100.00
2022-11-10T20:31:09.003Z,100.00
2022-11-10T20:33:56.665Z,100.00
2022-11-10T20:36:43.163Z,100.00
2022-11-10T20:39:29.818Z,100.00
2022-11-10T20:42:16.257Z,100.00
2022-11-10T20:45:02.977Z,100.00
2022-11-10T20:47:49.426Z,100.00
2022-11-10T20:50:39.481Z,100.00
2022-11-10T20:53:26.562Z,100.00
2022-11-10T20:56:14.080Z,100.00
2022-11-10T20:59:00.694Z,100.00
2022-11-10T21:01:47.291Z,100.00
2022-11-10T21:04:37.854Z,100.00
2022-11-10T21:07:28.075Z,100.00
2022-11-10T21:10:16.077Z,100.00
2022-11-10T21:13:05.904Z,100.00
2022-11-10T21:15:55.542Z,100.00
2022-11-10T21:18:44.068Z,100.00
2022-11-10T21:21:35.064Z,100.00
2022-11-10T21:24:23.939Z,100.00
2022-11-10T21:27:12.220Z,100.00
2022-11-10T21:29:58.953Z,100.00
2022-11-10T21:32:45.324Z,100.00
2022-11-10T21:35:36.832Z,100.00
